createdAt,value
2023-05-21T00:00:13.756Z,14.91
2023-05-21T00:01:14.086Z,14.69
2023-05-21T00:02:13.722Z,15.29
2023-05-21T00:03:14.010Z,14.76
2023-05-21T00:04:13.705Z,14.33
2023-05-21T00:05:15.019Z,16.04
2023-05-21T00:06:14.086Z,14.84
2023-05-21T00:07:13.674Z,14.48
2023-05-21T00:08:13.670Z,15.72
2023-05-21T00:09:13.687Z,14.42
2023-05-21T00:10:13.991Z,14.84
2023-05-21T00:11:13.638Z,14.51
2023-05-21T00:12:13.631Z,15.98
2023-05-21T00:13:13.618Z,15.01
2023-05-21T00:14:13.601Z,14.63
2023-05-21T00:15:14.285Z,15.17
2023-05-21T00:16:13.613Z,14.82
2023-05-21T00:17:13.577Z,14.35
2023-05-21T00:18:13.567Z,14.97
2023-05-21T00:19:14.071Z,14.28
2023-05-21T00:20:13.921Z,15.68
2023-05-21T00:21:13.533Z,14.83
2023-05-21T00:22:13.528Z,14.29
2023-05-21T00:23:13.517Z,14.75
2023-05-21T00:24:13.804Z,14.93
2023-05-21T00:25:13.519Z,16.39
2023-05-21T00:26:13.475Z,16.48
2023-05-21T00:27:13.478Z,15.47
2023-05-21T00:28:13.462Z,16.26
2023-05-21T00:29:14.363Z,14.79
2023-05-21T00:30:13.448Z,16.30
2023-05-21T00:31:13.461Z,15.09
2023-05-21T00:32:13.469Z,15.19
2023-05-21T00:33:13.786Z,14.91
2023-05-21T00:34:13.422Z,16.05
2023-05-21T00:35:13.415Z,14.36
2023-05-21T00:36:13.369Z,15.19
2023-05-21T00:37:13.374Z,16.32
2023-05-21T00:38:13.685Z,15.75
2023-05-21T00:39:13.348Z,16.41
2023-05-21T00:40:13.330Z,15.65
2023-05-21T00:41:13.331Z,14.91
2023-05-21T00:42:13.309Z,15.90
2023-05-21T00:43:13.685Z,15.85
2023-05-21T00:44:13.285Z,15.93
2023-05-21T00:45:13.288Z,16.29
2023-05-21T00:46:13.286Z,15.51
2023-05-21T00:47:13.777Z,14.90
2023-05-21T00:48:13.609Z,15.86
2023-05-21T00:49:13.253Z,15.69
2023-05-21T00:50:13.237Z,16.50
2023-05-21T00:51:13.226Z,15.33
2023-05-21T00:52:13.535Z,15.00
2023-05-21T00:53:13.211Z,15.19
2023-05-21T00:54:13.201Z,15.02
2023-05-21T00:55:13.186Z,14.76
2023-05-21T00:56:13.166Z,16.56
2023-05-21T00:57:13.176Z,16.70
2023-05-21T00:58:13.166Z,15.54
2023-05-21T00:59:13.135Z,16.19
2023-05-21T01:00:13.139Z,17.10
2023-05-21T01:01:13.941Z,16.90
2023-05-21T01:02:13.182Z,15.16
2023-05-21T01:03:13.281Z,15.29
2023-05-21T01:04:13.100Z,16.06
2023-05-21T01:05:13.083Z,16.98
2023-05-21T01:06:13.111Z,16.93
2023-05-21T01:07:13.063Z,15.49
2023-05-21T01:08:13.058Z,15.64
2023-05-21T01:09:13.043Z,16.74
2023-05-21T01:10:13.068Z,15.15
2023-05-21T01:11:13.736Z,15.40
2023-05-21T01:12:13.035Z,16.21
2023-05-21T01:13:13.005Z,15.44
2023-05-21T01:14:13.034Z,16.04
2023-05-21T01:15:13.044Z,16.33
2023-05-21T01:16:13.525Z,15.91
2023-05-21T01:17:13.179Z,16.40
2023-05-21T01:18:12.975Z,15.70
2023-05-21T01:19:13.013Z,17.41
2023-05-21T01:20:13.832Z,15.96
2023-05-21T01:21:12.936Z,17.78
2023-05-21T01:22:12.935Z,16.52
2023-05-21T01:23:12.908Z,15.99
2023-05-21T01:24:12.914Z,15.93
2023-05-21T01:25:13.223Z,17.09
2023-05-21T01:26:12.915Z,16.91
2023-05-21T01:27:12.874Z,16.83
2023-05-21T01:28:12.880Z,16.65
2023-05-21T01:29:13.336Z,17.16
2023-05-21T01:30:13.218Z,15.85
2023-05-21T01:31:12.832Z,16.17
2023-05-21T01:32:12.831Z,17.40
2023-05-21T01:33:12.891Z,16.71
2023-05-21T01:34:13.261Z,16.70
2023-05-21T01:35:12.813Z,16.02
2023-05-21T01:36:12.798Z,17.30
2023-05-21T01:37:12.780Z,17.11
2023-05-21T01:38:12.772Z,17.54
2023-05-21T01:39:13.619Z,16.89
2023-05-21T01:40:12.764Z,17.74
2023-05-21T01:41:12.734Z,17.73
2023-05-21T01:42:12.729Z,17.93
2023-05-21T01:43:13.076Z,18.30
2023-05-21T01:44:12.740Z,18.53
2023-05-21T01:45:12.689Z,17.12
2023-05-21T01:46:12.700Z,18.88
2023-05-21T01:47:12.667Z,17.52
2023-05-21T01:48:13.481Z,18.43
2023-05-21T01:49:12.653Z,18.84
2023-05-21T01:50:12.645Z,16.82
2023-05-21T01:51:12.631Z,17.15
2023-05-21T01:52:12.627Z,18.18
2023-05-21T01:53:12.643Z,17.27
2023-05-21T01:54:12.601Z,17.79
2023-05-21T01:55:12.588Z,17.62
2023-05-21T01:56:12.580Z,17.81
2023-05-21T01:57:12.920Z,16.18
2023-05-21T01:58:13.314Z,16.81
2023-05-21T01:59:12.548Z,17.39
2023-05-21T02:00:12.538Z,16.46
2023-05-21T02:01:12.532Z,18.62
2023-05-21T02:02:12.945Z,17.95
2023-05-21T02:03:12.635Z,18.45
2023-05-21T02:04:12.559Z,16.35
2023-05-21T02:05:12.476Z,16.72
2023-05-21T02:06:12.484Z,17.16
2023-05-21T02:07:12.822Z,18.72
2023-05-21T02:08:12.457Z,18.21
2023-05-21T02:09:12.428Z,17.39
2023-05-21T02:10:12.450Z,17.21
2023-05-21T02:11:12.777Z,18.71
2023-05-21T02:12:12.738Z,19.36
2023-05-21T02:13:12.408Z,17.51
2023-05-21T02:14:12.397Z,18.62
2023-05-21T02:15:12.375Z,17.78
2023-05-21T02:16:12.818Z,18.64
2023-05-21T02:17:12.360Z,18.07
2023-05-21T02:18:12.372Z,17.52
2023-05-21T02:19:12.399Z,18.57
2023-05-21T02:20:12.342Z,18.16
2023-05-21T02:21:12.706Z,18.58
2023-05-21T02:22:12.306Z,21.00
2023-05-21T02:23:12.294Z,18.99
2023-05-21T02:24:12.286Z,19.61
2023-05-21T02:25:12.613Z,18.81
2023-05-21T02:26:12.588Z,19.46
2023-05-21T02:27:12.246Z,19.92
2023-05-21T02:28:12.245Z,21.19
2023-05-21T02:29:12.231Z,18.58
2023-05-21T02:30:12.285Z,19.95
2023-05-21T02:31:12.209Z,19.61
2023-05-21T02:32:12.201Z,20.18
2023-05-21T02:33:12.180Z,20.22
2023-05-21T02:34:12.236Z,18.29
2023-05-21T02:35:12.638Z,20.19
2023-05-21T02:36:12.164Z,21.06
2023-05-21T02:37:12.146Z,20.20
2023-05-21T02:38:12.141Z,20.18
2023-05-21T02:39:12.192Z,19.17
2023-05-21T02:40:12.576Z,19.34
2023-05-21T02:41:12.115Z,21.34
2023-05-21T02:42:12.098Z,21.01
2023-05-21T02:43:13.552Z,19.29
2023-05-21T02:44:12.359Z,21.32
2023-05-21T02:45:12.060Z,20.79
2023-05-21T02:46:12.065Z,21.32
2023-05-21T02:47:11.999Z,20.16
2023-05-21T02:48:12.043Z,20.60
2023-05-21T02:49:12.744Z,20.77
2023-05-21T02:50:11.965Z,20.88
2023-05-21T02:51:11.944Z,20.46
2023-05-21T02:52:11.932Z,19.76
2023-05-21T02:53:12.003Z,20.07
2023-05-21T02:54:12.217Z,21.78
2023-05-21T02:55:11.912Z,20.69
2023-05-21T02:56:11.895Z,20.06
2023-05-21T02:57:11.888Z,20.06
2023-05-21T02:58:12.168Z,20.04
2023-05-21T02:59:11.857Z,20.80
2023-05-21T03:00:11.861Z,20.51
2023-05-21T03:01:11.887Z,18.92
2023-05-21T03:02:11.840Z,20.60
2023-05-21T03:03:12.349Z,21.36
2023-05-21T03:04:11.806Z,19.62
2023-05-21T03:05:11.805Z,20.28
2023-05-21T03:06:11.779Z,19.66
2023-05-21T03:07:12.081Z,20.89
2023-05-21T03:08:12.207Z,20.32
2023-05-21T03:09:11.763Z,20.31
2023-05-21T03:10:11.763Z,20.84
2023-05-21T03:11:11.738Z,21.55
2023-05-21T03:12:12.069Z,22.52
2023-05-21T03:13:11.739Z,21.78
2023-05-21T03:14:11.707Z,21.99
2023-05-21T03:15:11.707Z,23.22
2023-05-21T03:16:11.717Z,22.43
2023-05-21T03:17:11.952Z,21.21
2023-05-21T03:18:11.757Z,22.82
2023-05-21T03:19:11.686Z,20.57
2023-05-21T03:20:11.640Z,20.74
2023-05-21T03:21:12.396Z,20.51
2023-05-21T03:22:11.642Z,20.63
2023-05-21T03:23:12.685Z,20.38
2023-05-21T03:24:11.602Z,22.36
2023-05-21T03:25:11.593Z,20.83
2023-05-21T03:26:11.897Z,22.22
2023-05-21T03:27:11.593Z,21.04
2023-05-21T03:28:11.569Z,22.01
2023-05-21T03:29:11.564Z,20.16
2023-05-21T03:30:11.563Z,21.36
2023-05-21T03:31:11.941Z,20.69
2023-05-21T03:32:11.560Z,20.87
2023-05-21T03:33:11.574Z,21.46
2023-05-21T03:34:11.500Z,20.87
2023-05-21T03:35:11.825Z,22.01
2023-05-21T03:36:11.840Z,21.91
2023-05-21T03:37:11.484Z,21.51
2023-05-21T03:38:11.466Z,23.75
2023-05-21T03:39:11.469Z,21.48
2023-05-21T03:40:12.430Z,21.02
2023-05-21T03:41:11.449Z,22.29
2023-05-21T03:42:11.428Z,20.97
2023-05-21T03:43:11.436Z,22.69
2023-05-21T03:44:11.397Z,22.11
2023-05-21T03:45:11.408Z,21.19
2023-05-21T03:46:11.415Z,20.98
2023-05-21T03:47:11.376Z,20.34
2023-05-21T03:48:11.357Z,21.02
2023-05-21T03:49:12.143Z,21.16
2023-05-21T03:50:11.578Z,20.63
2023-05-21T03:51:11.336Z,22.50
2023-05-21T03:52:11.318Z,22.38
2023-05-21T03:53:11.312Z,21.16
2023-05-21T03:54:11.607Z,22.52
2023-05-21T03:55:11.294Z,21.63
2023-05-21T03:56:11.275Z,24.95
2023-05-21T03:57:11.284Z,21.59
2023-05-21T03:58:11.251Z,21.87
2023-05-21T03:59:12.085Z,22.11
2023-05-21T04:00:11.233Z,22.45
2023-05-21T04:01:11.233Z,21.89
2023-05-21T04:02:11.298Z,20.64
2023-05-21T04:03:11.755Z,23.08
2023-05-21T04:04:11.588Z,23.29
2023-05-21T04:05:11.188Z,22.09
2023-05-21T04:06:11.167Z,23.95
2023-05-21T04:07:11.165Z,22.92
2023-05-21T04:08:11.501Z,21.48
2023-05-21T04:09:11.143Z,21.24
2023-05-21T04:10:11.152Z,22.53
2023-05-21T04:11:11.124Z,22.00
2023-05-21T04:12:11.108Z,22.14
2023-05-21T04:13:12.040Z,21.78
2023-05-21T04:14:11.092Z,22.67
2023-05-21T04:15:11.091Z,22.14
2023-05-21T04:16:11.114Z,22.24
2023-05-21T04:17:11.495Z,22.93
2023-05-21T04:18:11.081Z,20.85
2023-05-21T04:19:11.064Z,22.64
2023-05-21T04:20:11.033Z,23.41
2023-05-21T04:21:11.020Z,22.97
2023-05-21T04:22:11.829Z,21.88
2023-05-21T04:23:11.017Z,23.21
2023-05-21T04:24:10.981Z,23.36
2023-05-21T04:25:10.979Z,22.46
2023-05-21T04:26:11.004Z,23.59
2023-05-21T04:27:11.279Z,22.53
2023-05-21T04:28:10.945Z,23.38
2023-05-21T04:29:10.938Z,22.73
2023-05-21T04:30:10.916Z,23.02
2023-05-21T04:31:11.303Z,23.31
2023-05-21T04:32:10.920Z,23.37
2023-05-21T04:33:10.896Z,21.50
2023-05-21T04:34:10.876Z,23.66
2023-05-21T04:35:10.869Z,22.83
2023-05-21T04:36:11.260Z,22.17
2023-05-21T04:37:10.899Z,22.25
2023-05-21T04:38:10.846Z,21.64
2023-05-21T04:39:10.845Z,23.58
2023-05-21T04:40:11.200Z,23.58
2023-05-21T04:41:11.239Z,23.99
2023-05-21T04:42:10.906Z,24.73
2023-05-21T04:43:10.801Z,23.44
2023-05-21T04:44:10.777Z,23.56
2023-05-21T04:45:10.783Z,22.69
2023-05-21T04:46:10.801Z,22.99
2023-05-21T04:47:10.760Z,23.33
2023-05-21T04:48:10.733Z,20.21
2023-05-21T04:49:10.729Z,23.06
2023-05-21T04:50:11.045Z,22.74
2023-05-21T04:51:11.137Z,22.44
2023-05-21T04:52:10.691Z,21.59
2023-05-21T04:53:10.684Z,22.12
2023-05-21T04:54:10.668Z,22.31
2023-05-21T04:55:10.674Z,21.85
2023-05-21T04:56:10.668Z,22.54
2023-05-21T04:57:10.651Z,22.74
2023-05-21T04:58:10.629Z,24.50
2023-05-21T04:59:10.630Z,23.06
2023-05-21T05:00:11.112Z,22.79
2023-05-21T05:01:10.694Z,23.32
2023-05-21T05:02:10.584Z,23.28
2023-05-21T05:03:10.638Z,21.10
2023-05-21T05:04:10.910Z,24.58
2023-05-21T05:05:10.571Z,22.68
2023-05-21T05:06:10.548Z,23.81
2023-05-21T05:07:10.536Z,23.18
2023-05-21T05:08:10.525Z,22.13
2023-05-21T05:09:11.416Z,22.43
2023-05-21T05:10:10.516Z,22.96
2023-05-21T05:11:10.494Z,22.72
2023-05-21T05:12:10.485Z,22.69
2023-05-21T05:13:10.748Z,22.45
2023-05-21T05:14:10.477Z,23.53
2023-05-21T05:15:10.450Z,22.06
2023-05-21T05:16:10.467Z,24.00
2023-05-21T05:17:10.439Z,23.73
2023-05-21T05:18:10.760Z,23.96
2023-05-21T05:19:10.471Z,23.93
2023-05-21T05:20:10.387Z,22.96
2023-05-21T05:21:10.390Z,23.53
2023-05-21T05:22:12.906Z,24.63
2023-05-21T05:23:10.703Z,23.32
2023-05-21T05:24:10.348Z,22.50
2023-05-21T05:25:10.345Z,24.55
2023-05-21T05:26:10.332Z,24.06
2023-05-21T05:27:10.643Z,25.02
2023-05-21T05:28:10.309Z,22.99
2023-05-21T05:29:10.304Z,23.08
2023-05-21T05:30:10.292Z,23.44
2023-05-21T05:31:10.307Z,24.11
2023-05-21T05:32:10.723Z,22.75
2023-05-21T05:33:10.263Z,24.45
2023-05-21T05:34:10.238Z,22.71
2023-05-21T05:35:10.240Z,22.96
2023-05-21T05:36:10.248Z,22.93
2023-05-21T05:37:10.489Z,22.30
2023-05-21T05:38:10.212Z,24.11
2023-05-21T05:39:10.201Z,21.98
2023-05-21T05:40:10.185Z,22.96
2023-05-21T05:41:10.452Z,21.69
2023-05-21T05:42:10.163Z,22.42
2023-05-21T05:43:10.159Z,23.02
2023-05-21T05:44:11.004Z,23.04
2023-05-21T05:45:10.131Z,23.43
2023-05-21T05:46:10.547Z,22.35
2023-05-21T05:47:10.114Z,22.43
2023-05-21T05:48:10.270Z,22.52
2023-05-21T05:49:10.098Z,23.24
2023-05-21T05:50:10.401Z,21.70
2023-05-21T05:51:10.412Z,23.17
2023-05-21T05:52:10.091Z,21.99
2023-05-21T05:53:10.054Z,22.95
2023-05-21T05:54:10.037Z,22.78
2023-05-21T05:55:10.363Z,21.22
2023-05-21T05:56:10.015Z,23.82
2023-05-21T05:57:10.017Z,23.00
2023-05-21T05:58:09.991Z,23.05
2023-05-21T05:59:09.996Z,23.39
2023-05-21T06:00:10.315Z,23.00
2023-05-21T06:01:09.967Z,23.74
2023-05-21T06:02:09.980Z,21.22
2023-05-21T06:03:10.011Z,23.94
2023-05-21T06:04:09.958Z,23.35
2023-05-21T06:05:10.232Z,22.03
2023-05-21T06:06:09.941Z,22.45
2023-05-21T06:07:09.908Z,22.50
2023-05-21T06:08:09.890Z,23.67
2023-05-21T06:09:10.147Z,23.23
2023-05-21T06:10:09.866Z,22.63
2023-05-21T06:11:09.863Z,24.71
2023-05-21T06:12:12.312Z,22.43
2023-05-21T06:13:09.833Z,24.28
2023-05-21T06:14:10.156Z,23.01
2023-05-21T06:15:09.840Z,23.59
2023-05-21T06:16:09.873Z,25.61
2023-05-21T06:17:09.794Z,25.06
2023-05-21T06:18:09.813Z,24.48
2023-05-21T06:19:09.868Z,23.26
2023-05-21T06:20:09.768Z,25.90
2023-05-21T06:21:10.115Z,24.49
2023-05-21T06:22:09.746Z,25.21
2023-05-21T06:23:09.749Z,23.22
2023-05-21T06:24:09.740Z,23.62
2023-05-21T06:25:09.716Z,24.22
2023-05-21T06:26:09.710Z,24.06
2023-05-21T06:27:09.693Z,22.90
2023-05-21T06:28:09.709Z,23.43
2023-05-21T06:29:09.660Z,23.89
2023-05-21T06:30:09.646Z,24.94
2023-05-21T06:31:09.637Z,24.16
2023-05-21T06:32:09.649Z,23.90
2023-05-21T06:33:09.736Z,23.80
2023-05-21T06:34:09.650Z,23.18
2023-05-21T06:35:09.593Z,23.39
2023-05-21T06:36:09.584Z,22.79
2023-05-21T06:37:09.604Z,22.97
2023-05-21T06:38:09.574Z,24.59
2023-05-21T06:39:09.537Z,25.03
2023-05-21T06:40:09.531Z,23.12
2023-05-21T06:41:09.520Z,22.26
2023-05-21T06:42:09.524Z,22.45
2023-05-21T06:43:09.495Z,24.95
2023-05-21T06:44:09.476Z,21.71
2023-05-21T06:45:09.468Z,24.21
2023-05-21T06:46:09.537Z,23.08
2023-05-21T06:47:09.713Z,22.85
2023-05-21T06:48:09.551Z,22.66
2023-05-21T06:49:09.427Z,23.32
2023-05-21T06:50:09.399Z,21.75
2023-05-21T06:51:09.413Z,22.68
2023-05-21T06:52:09.417Z,23.00
2023-05-21T06:53:09.370Z,22.12
2023-05-21T06:54:09.358Z,23.56
2023-05-21T06:55:09.348Z,21.37
2023-05-21T06:56:09.690Z,23.34
2023-05-21T06:57:09.329Z,24.05
2023-05-21T06:58:09.306Z,22.79
2023-05-21T06:59:09.297Z,23.86
2023-05-21T07:00:09.294Z,22.57
2023-05-21T07:01:09.660Z,21.84
2023-05-21T07:02:09.299Z,23.85
2023-05-21T07:03:09.300Z,23.53
2023-05-21T07:04:09.232Z,23.40
2023-05-21T07:05:09.584Z,22.90
2023-05-21T07:06:09.381Z,23.89
2023-05-21T07:07:09.200Z,22.21
2023-05-21T07:08:11.357Z,24.03
2023-05-21T07:09:09.179Z,22.99
2023-05-21T07:10:10.114Z,22.82
2023-05-21T07:11:09.153Z,23.96
2023-05-21T07:12:09.143Z,23.07
2023-05-21T07:13:09.134Z,22.50
2023-05-21T07:14:09.128Z,22.15
2023-05-21T07:15:09.430Z,22.03
2023-05-21T07:16:09.142Z,22.22
2023-05-21T07:17:09.126Z,22.55
2023-05-21T07:18:09.160Z,23.02
2023-05-21T07:19:09.146Z,22.39
2023-05-21T07:20:09.071Z,22.58
2023-05-21T07:21:09.048Z,23.67
2023-05-21T07:22:09.037Z,22.58
2023-05-21T07:23:09.015Z,21.27
2023-05-21T07:24:09.026Z,22.34
2023-05-21T07:25:09.014Z,22.77
2023-05-21T07:26:08.995Z,22.43
2023-05-21T07:27:24.238Z,22.30
2023-05-21T07:28:08.992Z,22.33
2023-05-21T07:29:08.974Z,22.15
2023-05-21T07:30:08.953Z,22.18
2023-05-21T07:31:09.020Z,25.02
2023-05-21T07:32:08.930Z,22.71
2023-05-21T07:33:09.309Z,22.38
2023-05-21T07:34:09.220Z,22.06
2023-05-21T07:35:08.889Z,22.39
2023-05-21T07:36:08.883Z,21.42
2023-05-21T07:37:08.876Z,22.46
2023-05-21T07:38:08.911Z,21.87
2023-05-21T07:39:09.124Z,21.15
2023-05-21T07:40:08.853Z,22.98
2023-05-21T07:41:08.832Z,23.18
2023-05-21T07:42:08.843Z,21.83
2023-05-21T07:43:09.776Z,20.74
2023-05-21T07:44:08.804Z,23.20
2023-05-21T07:45:08.789Z,24.54
2023-05-21T07:46:08.819Z,23.32
2023-05-21T07:47:08.773Z,22.42
2023-05-21T07:48:08.806Z,24.45
2023-05-21T07:49:08.746Z,23.53
2023-05-21T07:50:08.743Z,22.71
2023-05-21T07:51:08.739Z,22.57
2023-05-21T07:52:09.049Z,22.56
2023-05-21T07:53:09.172Z,21.61
2023-05-21T07:54:08.703Z,21.68
2023-05-21T07:55:08.703Z,22.41
2023-05-21T07:56:08.697Z,21.58
2023-05-21T07:57:08.703Z,22.23
2023-05-21T07:58:08.672Z,21.50
2023-05-21T07:59:08.661Z,21.90
2023-05-21T08:00:08.650Z,21.36
2023-05-21T08:01:08.629Z,21.54
2023-05-21T08:02:08.890Z,23.09
2023-05-21T08:03:08.728Z,22.17
2023-05-21T08:04:08.770Z,23.12
2023-05-21T08:05:08.656Z,20.81
2023-05-21T08:06:08.862Z,21.63
2023-05-21T08:07:08.983Z,21.37
2023-05-21T08:08:08.568Z,22.06
2023-05-21T08:09:08.543Z,22.93
2023-05-21T08:10:08.548Z,21.91
2023-05-21T08:11:08.845Z,22.68
2023-05-21T08:12:08.533Z,22.13
2023-05-21T08:13:08.510Z,23.86
2023-05-21T08:14:08.494Z,23.10
2023-05-21T08:15:08.477Z,21.60
2023-05-21T08:16:08.910Z,22.02
2023-05-21T08:17:08.461Z,20.87
2023-05-21T08:18:08.471Z,21.64
2023-05-21T08:19:08.475Z,20.93
2023-05-21T08:20:09.345Z,21.87
2023-05-21T08:21:08.738Z,21.75
2023-05-21T08:22:08.414Z,22.03
2023-05-21T08:23:08.397Z,22.98
2023-05-21T08:24:08.409Z,22.92
2023-05-21T08:25:08.774Z,22.07
2023-05-21T08:26:08.383Z,22.51
2023-05-21T08:27:08.354Z,22.49
2023-05-21T08:28:08.342Z,21.81
2023-05-21T08:29:08.338Z,22.15
2023-05-21T08:30:08.688Z,21.65
2023-05-21T08:31:08.318Z,22.57
2023-05-21T08:32:08.501Z,22.32
2023-05-21T08:33:08.340Z,22.03
2023-05-21T08:34:08.305Z,23.04
2023-05-21T08:35:08.289Z,21.26
2023-05-21T08:36:08.280Z,21.85
2023-05-21T08:37:08.254Z,21.15
2023-05-21T08:38:08.256Z,22.18
2023-05-21T08:39:08.269Z,21.30
2023-05-21T08:40:08.226Z,22.25
2023-05-21T08:41:08.208Z,22.11
2023-05-21T08:42:08.208Z,22.39
2023-05-21T08:43:08.188Z,20.53
2023-05-21T08:44:08.198Z,20.46
2023-05-21T08:45:08.165Z,20.68
2023-05-21T08:46:08.185Z,21.46
2023-05-21T08:47:08.157Z,20.85
2023-05-21T08:48:08.476Z,21.84
2023-05-21T08:49:08.435Z,22.25
2023-05-21T08:50:08.131Z,20.52
2023-05-21T08:51:08.106Z,20.22
2023-05-21T08:52:08.104Z,20.57
2023-05-21T08:53:16.049Z,20.06
2023-05-21T08:54:08.080Z,21.59
2023-05-21T08:55:08.069Z,21.58
2023-05-21T08:56:08.066Z,20.87
2023-05-21T08:57:08.063Z,20.30
2023-05-21T08:58:08.664Z,19.90
2023-05-21T08:59:08.022Z,20.92
2023-05-21T09:00:08.022Z,22.27
2023-05-21T09:01:08.054Z,20.45
2023-05-21T09:02:08.476Z,20.76
2023-05-21T09:03:08.087Z,20.18
2023-05-21T09:04:19.752Z,19.98
2023-05-21T09:05:07.973Z,19.52
2023-05-21T09:06:07.961Z,20.29
2023-05-21T09:07:07.964Z,20.35
2023-05-21T09:08:07.936Z,20.28
2023-05-21T09:09:07.928Z,20.25
2023-05-21T09:10:07.924Z,21.23
2023-05-21T09:11:07.903Z,19.69
2023-05-21T09:12:07.950Z,20.37
2023-05-21T09:13:07.953Z,19.31
2023-05-21T09:14:07.882Z,20.01
2023-05-21T09:15:07.863Z,20.22
2023-05-21T09:16:07.876Z,21.03
2023-05-21T09:17:08.307Z,21.27
2023-05-21T09:18:07.903Z,20.71
2023-05-21T09:19:07.839Z,20.34
2023-05-21T09:20:07.829Z,19.74
2023-05-21T09:21:08.152Z,19.91
2023-05-21T09:22:07.796Z,20.46
2023-05-21T09:23:07.785Z,20.42
2023-05-21T09:24:07.783Z,20.96
2023-05-21T09:25:07.760Z,19.26
2023-05-21T09:26:07.772Z,19.97
2023-05-21T09:27:07.779Z,19.33
2023-05-21T09:28:07.741Z,20.67
2023-05-21T09:29:07.725Z,19.64
2023-05-21T09:30:08.518Z,19.65
2023-05-21T09:31:08.261Z,20.47
2023-05-21T09:32:07.704Z,19.59
2023-05-21T09:33:07.750Z,19.41
2023-05-21T09:34:07.682Z,21.05
2023-05-21T09:35:07.692Z,19.07
2023-05-21T09:36:07.666Z,20.30
2023-05-21T09:37:16.427Z,19.65
2023-05-21T09:38:07.649Z,19.59
2023-05-21T09:39:07.639Z,20.04
2023-05-21T09:40:07.900Z,19.82
2023-05-21T09:41:07.611Z,20.21
2023-05-21T09:42:07.615Z,20.55
2023-05-21T09:43:07.584Z,19.97
2023-05-21T09:44:07.899Z,20.36
2023-05-21T09:45:07.628Z,20.34
2023-05-21T09:46:07.588Z,22.17
2023-05-21T09:47:07.546Z,21.76
2023-05-21T09:48:07.555Z,20.54
2023-05-21T09:49:07.545Z,20.14
2023-05-21T09:50:07.527Z,18.88
2023-05-21T09:51:07.502Z,20.56
2023-05-21T09:52:07.507Z,20.21
2023-05-21T09:53:07.488Z,20.01
2023-05-21T09:54:07.774Z,18.87
2023-05-21T09:55:07.474Z,19.97
2023-05-21T09:56:07.469Z,19.67
2023-05-21T09:57:07.466Z,21.11
2023-05-21T09:58:07.461Z,19.24
2023-05-21T09:59:07.452Z,20.07
2023-05-21T10:00:07.427Z,19.50
2023-05-21T10:01:07.404Z,20.32
2023-05-21T10:02:07.422Z,19.92
2023-05-21T10:03:07.524Z,20.18
2023-05-21T10:04:07.463Z,19.81
2023-05-21T10:05:07.368Z,19.49
2023-05-21T10:06:07.378Z,20.85
2023-05-21T10:07:07.347Z,20.94
2023-05-21T10:08:07.356Z,20.02
2023-05-21T10:09:07.331Z,19.53
2023-05-21T10:10:07.329Z,19.68
2023-05-21T10:11:07.313Z,17.85
2023-05-21T10:12:07.531Z,20.74
2023-05-21T10:13:07.301Z,19.34
2023-05-21T10:14:07.343Z,18.44
2023-05-21T10:15:07.259Z,19.87
2023-05-21T10:16:07.342Z,19.46
2023-05-21T10:17:07.254Z,19.85
2023-05-21T10:18:07.262Z,20.54
2023-05-21T10:19:07.237Z,19.06
2023-05-21T10:20:07.227Z,20.81
2023-05-21T10:21:07.201Z,20.01
2023-05-21T10:22:07.234Z,18.92
2023-05-21T10:23:07.184Z,19.48
2023-05-21T10:24:07.170Z,19.55
2023-05-21T10:25:07.163Z,19.13
2023-05-21T10:26:07.173Z,17.58
2023-05-21T10:27:07.174Z,20.34
2023-05-21T10:28:07.155Z,20.81
2023-05-21T10:29:07.114Z,20.08
2023-05-21T10:30:07.107Z,20.34
2023-05-21T10:31:07.107Z,18.64
2023-05-21T10:32:07.106Z,20.42
2023-05-21T10:33:07.102Z,19.46
2023-05-21T10:34:07.067Z,20.33
2023-05-21T10:35:07.425Z,18.70
2023-05-21T10:36:07.061Z,18.96
2023-05-21T10:37:07.091Z,19.39
2023-05-21T10:38:07.038Z,18.49
2023-05-21T10:39:07.020Z,19.89
2023-05-21T10:40:07.033Z,19.95
2023-05-21T10:41:07.005Z,19.81
2023-05-21T10:42:06.994Z,19.51
2023-05-21T10:43:06.968Z,19.55
2023-05-21T10:44:06.967Z,19.35
2023-05-21T10:45:06.964Z,19.07
2023-05-21T10:46:06.965Z,20.74
2023-05-21T10:47:06.935Z,19.65
2023-05-21T10:48:06.969Z,20.07
2023-05-21T10:49:07.262Z,20.33
2023-05-21T10:50:06.930Z,19.56
2023-05-21T10:51:06.893Z,19.00
2023-05-21T10:52:06.885Z,21.42
2023-05-21T10:53:08.077Z,19.56
2023-05-21T10:54:06.995Z,19.75
2023-05-21T10:55:06.845Z,19.45
2023-05-21T10:56:06.876Z,19.87
2023-05-21T10:57:06.864Z,18.69
2023-05-21T10:58:06.825Z,19.77
2023-05-21T10:59:07.090Z,18.93
2023-05-21T11:00:06.815Z,20.71
2023-05-21T11:01:06.846Z,19.29
2023-05-21T11:02:06.783Z,19.66
2023-05-21T11:03:06.837Z,19.67
2023-05-21T11:04:06.801Z,19.11
2023-05-21T11:05:06.754Z,19.93
2023-05-21T11:06:06.747Z,18.89
2023-05-21T11:07:06.729Z,19.54
2023-05-21T11:08:06.735Z,19.12
2023-05-21T11:09:06.705Z,21.13
2023-05-21T11:10:06.709Z,20.56
2023-05-21T11:11:06.698Z,18.92
2023-05-21T11:12:06.690Z,19.37
2023-05-21T11:13:06.716Z,19.30
2023-05-21T11:14:06.656Z,19.57
2023-05-21T11:15:06.643Z,19.27
2023-05-21T11:16:06.661Z,20.43
2023-05-21T11:17:07.025Z,18.53
2023-05-21T11:18:06.665Z,19.41
2023-05-21T11:19:06.647Z,18.56
2023-05-21T11:20:06.604Z,20.77
2023-05-21T11:21:06.590Z,20.09
2023-05-21T11:22:06.604Z,19.82
2023-05-21T11:23:06.569Z,20.52
2023-05-21T11:24:06.629Z,21.41
2023-05-21T11:25:06.552Z,20.19
2023-05-21T11:26:06.535Z,20.32
2023-05-21T11:27:06.562Z,20.23
2023-05-21T11:28:06.526Z,20.78
2023-05-21T11:29:06.552Z,21.52
2023-05-21T11:30:06.508Z,20.23
2023-05-21T11:31:06.518Z,19.71
2023-05-21T11:32:06.493Z,19.85
2023-05-21T11:33:06.539Z,19.64
2023-05-21T11:34:06.452Z,19.62
2023-05-21T11:35:06.463Z,20.09
2023-05-21T11:36:06.777Z,19.92
2023-05-21T11:37:06.437Z,19.00
2023-05-21T11:38:06.410Z,19.95
2023-05-21T11:39:06.439Z,18.56
2023-05-21T11:40:06.387Z,20.55
2023-05-21T11:41:06.730Z,19.90
2023-05-21T11:42:06.379Z,18.80
2023-05-21T11:43:06.370Z,19.21
2023-05-21T11:44:06.352Z,18.15
2023-05-21T11:45:06.709Z,19.58
2023-05-21T11:46:06.727Z,19.64
2023-05-21T11:47:06.325Z,19.18
2023-05-21T11:48:06.357Z,18.91
2023-05-21T11:49:06.307Z,17.89
2023-05-21T11:50:06.592Z,18.81
2023-05-21T11:51:06.294Z,18.21
2023-05-21T11:52:06.284Z,18.93
2023-05-21T11:53:06.261Z,18.36
2023-05-21T11:54:06.261Z,17.09
2023-05-21T11:55:06.746Z,18.14
2023-05-21T11:56:06.230Z,16.70
2023-05-21T11:57:06.227Z,17.89
2023-05-21T11:58:06.217Z,17.62
2023-05-21T11:59:06.220Z,18.01
2023-05-21T12:00:06.573Z,17.11
2023-05-21T12:01:06.193Z,18.19
2023-05-21T12:02:06.174Z,17.93
2023-05-21T12:03:06.317Z,16.41
2023-05-21T12:04:06.224Z,16.53
2023-05-21T12:05:06.140Z,16.46
2023-05-21T12:06:06.178Z,18.07
2023-05-21T12:07:06.126Z,17.66
2023-05-21T12:08:06.109Z,17.63
2023-05-21T12:09:06.140Z,20.03
2023-05-21T12:10:06.090Z,18.65
2023-05-21T12:11:06.098Z,16.08
2023-05-21T12:12:06.068Z,19.63
2023-05-21T12:13:06.850Z,18.81
2023-05-21T12:14:06.054Z,17.10
2023-05-21T12:15:06.047Z,16.74
2023-05-21T12:16:07.038Z,17.78
2023-05-21T12:17:06.332Z,16.40
2023-05-21T12:18:06.404Z,16.06
2023-05-21T12:19:06.073Z,16.86
2023-05-21T12:20:06.001Z,17.51
2023-05-21T12:21:05.981Z,16.04
2023-05-21T12:22:06.280Z,17.16
2023-05-21T12:23:06.291Z,17.17
2023-05-21T12:24:05.953Z,16.54
2023-05-21T12:25:05.938Z,17.20
2023-05-21T12:26:05.928Z,16.75
2023-05-21T12:27:06.246Z,16.62
2023-05-21T12:28:05.906Z,17.78
2023-05-21T12:29:05.918Z,16.36
2023-05-21T12:30:05.878Z,16.77
2023-05-21T12:31:05.880Z,16.62
2023-05-21T12:32:06.666Z,16.73
2023-05-21T12:33:05.910Z,17.60
2023-05-21T12:34:05.844Z,17.29
2023-05-21T12:35:05.861Z,14.69
2023-05-21T12:36:06.312Z,17.12
2023-05-21T12:37:05.847Z,16.90
2023-05-21T12:38:05.804Z,17.26
2023-05-21T12:39:05.803Z,17.49
2023-05-21T12:40:05.788Z,16.75
2023-05-21T12:41:06.592Z,17.46
2023-05-21T12:42:05.769Z,16.96
2023-05-21T12:43:05.758Z,16.92
2023-05-21T12:44:05.766Z,17.34
2023-05-21T12:45:05.748Z,15.40
2023-05-21T12:46:06.121Z,16.32
2023-05-21T12:47:05.747Z,16.20
2023-05-21T12:48:05.775Z,16.53
2023-05-21T12:49:05.723Z,15.94
2023-05-21T12:50:06.061Z,16.46
2023-05-21T12:51:06.565Z,15.94
2023-05-21T12:52:05.701Z,16.27